Time;durP1;ratioP1;P1;durP2;ratioP2;P2;SDS_P1;SDS_P2;PMS_P1;PMS_P2;Temp;Humidity;BMP_temperature;BMP_pressure;BME280_temperature;BME280_humidity;BME280_pressure;Samples;Min_cycle;Max_cycle;Signal;HPM_P1;HPM_P2
2023/10/10 00:02:18;;;;;;;14.30;7.38;;;;;;;19.60;91.30;101550.06;7352922;19;20018;-66
2023/10/10 00:04:47;;;;;;;17.38;8.43;;;;;;;19.56;91.17;101551.44;7354070;19;20657;-65
2023/10/10 00:07:18;;;;;;;14.98;7.90;;;;;;;19.51;91.44;101552.03;7353712;19;20056;-65
2023/10/10 00:09:46;;;;;;;14.98;8.00;;;;;;;19.49;91.67;101547.94;7352405;19;20015;-66
2023/10/10 00:12:18;;;;;;;16.58;8.40;;;;;;;19.47;91.79;101552.63;7353862;19;20018;-66
2023/10/10 00:14:50;;;;;;;15.40;8.02;;;;;;;19.44;92.14;101563.66;7351679;19;20026;-66
2023/10/10 00:17:20;;;;;;;14.10;8.23;;;;;;;19.41;91.83;101562.19;7356954;19;20487;-65
2023/10/10 00:22:26;;;;;;;13.38;8.20;;;;;;;19.36;92.34;101571.78;7353454;19;20015;-66
2023/10/10 00:24:54;;;;;;;13.70;7.53;;;;;;;19.31;92.72;101560.88;7354351;19;20088;-66
2023/10/10 00:27:23;;;;;;;17.80;8.07;;;;;;;19.29;93.28;101555.75;7353304;19;20025;-64
2023/10/10 00:29:54;;;;;;;16.45;8.75;;;;;;;19.27;93.51;101556.94;7350647;19;20373;-65
2023/10/10 00:34:52;;;;;;;16.40;8.38;;;;;;;19.22;93.26;101555.66;7354194;19;20658;-65
2023/10/10 00:37:21;;;;;;;17.45;8.70;;;;;;;19.16;93.60;101556.44;7357367;19;20018;-64
2023/10/10 00:42:21;;;;;;;15.55;8.68;;;;;;;19.12;94.05;101563.16;7352688;19;20110;-67
2023/10/10 00:44:49;;;;;;;21.33;9.50;;;;;;;19.13;94.09;101564.81;7350189;19;20911;-66
2023/10/10 00:47:21;;;;;;;16.13;9.23;;;;;;;19.14;93.97;101557.66;7348922;19;20063;-66
2023/10/10 00:49:50;;;;;;;20.30;9.02;;;;;;;19.13;94.31;101543.47;7351638;19;20032;-64
2023/10/10 00:52:18;;;;;;;14.73;8.25;;;;;;;19.11;94.04;101539.34;7354094;19;20071;-64
2023/10/10 00:54:46;;;;;;;16.38;9.23;;;;;;;19.07;94.32;101533.56;7352999;19;20129;-65
2023/10/10 00:57:16;;;;;;;16.30;8.70;;;;;;;19.03;94.34;101542.97;7352778;19;20007;-65
2023/10/10 00:59:44;;;;;;;15.65;9.50;;;;;;;19.02;94.76;101540.50;7350600;19;20022;-65
2023/10/10 01:02:14;;;;;;;17.75;9.07;;;;;;;19.01;95.03;101536.16;7351798;19;20074;-65
2023/10/10 01:07:19;;;;;;;21.33;9.48;;;;;;;18.94;95.09;101514.78;7353638;19;20109;-66
2023/10/10 01:12:18;;;;;;;16.38;8.82;;;;;;;18.89;95.37;101509.19;7360300;19;20085;-65
2023/10/10 01:14:46;;;;;;;15.20;9.07;;;;;;;18.88;95.62;101504.88;7357167;19;20019;-66
2023/10/10 01:17:14;;;;;;;21.88;10.18;;;;;;;18.87;95.31;101502.38;7360452;19;20117;-65
2023/10/10 01:19:50;;;;;;;15.70;8.80;;;;;;;18.88;95.85;101512.88;7358466;19;20077;-66
2023/10/10 01:24:53;;;;;;;15.18;8.50;;;;;;;18.86;95.85;101493.53;7357836;19;20043;-64
2023/10/10 01:27:22;;;;;;;17.95;8.75;;;;;;;18.87;95.83;101489.03;7358749;19;20126;-66
2023/10/10 01:30:17;;;;;;;16.83;9.02;;;;;;;18.85;95.61;101493.72;7356250;19;20014;-65
2023/10/10 01:32:39;;;;;;;16.05;9.45;;;;;;;18.85;95.80;101481.22;7357509;19;20657;-65
2023/10/10 01:35:16;;;;;;;16.20;8.93;;;;;;;18.85;95.89;101489.22;7360385;19;20025;-70
2023/10/10 01:37:54;;;;;;;17.52;8.98;;;;;;;18.83;95.93;101487.78;7359074;19;20038;-68
2023/10/10 01:40:24;;;;;;;18.35;9.40;;;;;;;18.82;95.75;101484.28;7359788;19;20606;-65
2023/10/10 01:42:53;;;;;;;16.25;8.32;;;;;;;18.77;95.87;101482.19;7355061;19;20928;-65
2023/10/10 01:45:23;;;;;;;19.55;9.52;;;;;;;18.74;96.01;101493.22;7357640;19;20891;-65
2023/10/10 01:50:22;;;;;;;17.00;9.50;;;;;;;18.66;96.80;101493.34;7355602;19;20710;-65
2023/10/10 01:52:50;;;;;;;18.30;8.98;;;;;;;18.64;96.79;101497.25;7356863;19;20644;-64
2023/10/10 01:55:18;;;;;;;18.42;9.80;;;;;;;18.64;96.95;101491.91;7357977;19;20138;-65
2023/10/10 01:57:45;;;;;;;18.50;9.10;;;;;;;18.64;97.01;101486.56;7356095;19;20042;-65
2023/10/10 02:02:44;;;;;;;17.02;9.35;;;;;;;18.60;96.73;101477.28;7349624;19;20014;-66
2023/10/10 02:05:13;;;;;;;16.85;9.65;;;;;;;18.55;96.86;101483.19;7357899;19;20022;-65
2023/10/10 02:07:48;;;;;;;17.13;8.80;;;;;;;18.55;97.10;101475.19;7355698;19;20015;-65
2023/10/10 02:10:18;;;;;;;19.00;10.35;;;;;;;18.52;97.16;101470.22;7358060;19;20014;-66
2023/10/10 02:12:46;;;;;;;14.32;8.77;;;;;;;18.50;97.22;101479.38;7356468;19;20348;-65
2023/10/10 02:15:18;;;;;;;17.10;9.43;;;;;;;18.49;97.23;101470.56;7356327;19;20077;-65
2023/10/10 02:17:51;;;;;;;16.63;8.43;;;;;;;18.48;97.33;101476.94;7357518;19;20086;-65
2023/10/10 02:20:33;;;;;;;16.52;9.02;;;;;;;18.48;97.24;101468.13;7355495;19;20423;-65
2023/10/10 02:28:03;;;;;;;17.90;8.43;;;;;;;18.44;97.66;101456.19;7356107;19;20992;-66
2023/10/10 02:33:13;;;;;;;17.63;8.55;;;;;;;18.38;97.51;101461.25;7356899;19;20052;-65
2023/10/10 02:35:54;;;;;;;16.88;8.65;;;;;;;18.37;97.61;101467.59;7358000;19;20371;-66
2023/10/10 02:38:31;;;;;;;16.50;8.27;;;;;;;18.37;97.89;101470.25;7357234;19;20025;-66
2023/10/10 02:43:46;;;;;;;14.10;8.20;;;;;;;18.33;97.71;101449.50;7353598;19;20018;-67
2023/10/10 02:46:17;;;;;;;14.02;8.10;;;;;;;18.35;97.64;101447.47;7354096;19;20014;-66
2023/10/10 02:48:45;;;;;;;15.82;8.02;;;;;;;18.34;97.60;101441.28;7351310;19;21852;-65
2023/10/10 02:51:15;;;;;;;17.25;8.88;;;;;;;18.35;97.44;101439.47;7353427;19;20021;-65
2023/10/10 02:53:46;;;;;;;15.10;8.88;;;;;;;18.38;97.70;101441.75;7356401;19;20345;-65
2023/10/10 02:56:18;;;;;;;16.52;7.68;;;;;;;18.41;97.89;101429.88;7358734;19;21032;-65
2023/10/10 02:58:49;;;;;;;13.00;7.32;;;;;;;18.41;97.29;101425.38;7356500;19;20144;-65
2023/10/10 03:03:48;;;;;;;16.17;7.70;;;;;;;18.42;95.86;101421.72;7357540;19;20011;-65
2023/10/10 03:06:16;;;;;;;17.13;7.75;;;;;;;18.39;95.98;101422.91;7358022;19;20687;-65
2023/10/10 03:08:51;;;;;;;14.55;7.85;;;;;;;18.38;96.10;101421.28;7357693;19;20495;-65
2023/10/10 03:13:57;;;;;;;14.43;6.68;;;;;;;18.35;96.25;101416.31;7352262;19;20014;-66
2023/10/10 03:23:56;;;;;;;12.93;7.40;;;;;;;18.30;95.94;101407.22;7354026;19;20106;-65
2023/10/10 03:29:03;;;;;;;13.38;7.20;;;;;;;18.22;95.88;101410.03;7355982;19;20085;-65
2023/10/10 03:31:38;;;;;;;12.68;7.25;;;;;;;18.19;95.73;101405.88;7355804;19;20055;-66
2023/10/10 03:36:43;;;;;;;12.85;6.75;;;;;;;18.18;96.08;101390.94;7355909;19;20673;-65
2023/10/10 03:39:17;;;;;;;15.52;7.55;;;;;;;18.20;96.14;101406.72;7357518;19;20014;-65
2023/10/10 05:24:49;;;;;;;11.40;5.85;;;;;;;17.73;94.16;101345.94;7358152;19;20010;-67
2023/10/10 05:27:17;;;;;;;12.57;6.43;;;;;;;17.71;93.62;101354.13;7360841;19;20018;-65
2023/10/10 05:29:47;;;;;;;13.40;6.63;;;;;;;17.69;93.63;101342.00;7356553;19;20654;-66
2023/10/10 05:32:14;;;;;;;14.75;7.57;;;;;;;17.65;93.64;101346.88;7358834;19;20503;-65
2023/10/10 05:34:42;;;;;;;12.27;6.57;;;;;;;17.63;93.19;101337.41;7358645;19;20018;-66
2023/10/10 05:37:09;;;;;;;12.65;6.95;;;;;;;17.58;93.18;101340.59;7362207;19;20126;-66
2023/10/10 05:39:40;;;;;;;13.07;6.63;;;;;;;17.57;93.42;101340.81;7359355;19;20467;-65
2023/10/10 05:42:08;;;;;;;11.25;6.07;;;;;;;17.53;93.36;101333.19;7359236;19;20529;-66
2023/10/10 05:44:38;;;;;;;12.63;6.32;;;;;;;17.52;93.14;101341.38;7353840;19;20591;-66
2023/10/10 05:47:06;;;;;;;10.68;6.13;;;;;;;17.49;92.93;101344.38;7359487;19;20442;-65
2023/10/10 05:49:33;;;;;;;13.48;6.97;;;;;;;17.47;93.25;101336.56;7357144;19;20651;-67
2023/10/10 05:52:02;;;;;;;14.95;6.53;;;;;;;17.44;93.06;101336.97;7354503;19;20018;-66
2023/10/10 05:54:29;;;;;;;9.82;6.07;;;;;;;17.42;93.09;101336.31;7353772;19;20015;-66
2023/10/10 05:57:00;;;;;;;14.43;6.25;;;;;;;17.39;93.13;101338.50;7356252;19;20142;-66
2023/10/10 05:59:28;;;;;;;15.65;7.07;;;;;;;17.39;92.93;101335.84;7355555;19;20788;-65
2023/10/10 06:01:56;;;;;;;12.68;6.30;;;;;;;17.36;93.12;101336.25;7360908;19;21302;-66
2023/10/10 06:04:23;;;;;;;14.07;6.15;;;;;;;17.34;93.33;101338.25;7356229;19;20058;-65
2023/10/10 06:06:52;;;;;;;13.80;6.93;;;;;;;17.37;93.17;101329.91;7358732;19;20014;-66
2023/10/10 06:09:19;;;;;;;14.82;5.95;;;;;;;17.37;92.95;101336.03;7357256;19;20019;-66
2023/10/10 06:11:49;;;;;;;11.00;5.65;;;;;;;17.41;92.57;101336.50;7358117;19;20039;-65
2023/10/10 06:14:19;;;;;;;18.58;7.32;;;;;;;17.40;92.06;101327.69;7355965;19;20038;-66
2023/10/10 06:16:47;;;;;;;11.05;5.90;;;;;;;17.42;91.81;101335.50;7355220;19;20645;-66
2023/10/10 06:19:20;;;;;;;16.88;7.00;;;;;;;17.41;91.22;101340.00;7357654;19;20014;-66
2023/10/10 06:21:52;;;;;;;12.55;6.80;;;;;;;17.42;90.78;101333.63;7357731;19;20011;-66
2023/10/10 06:24:19;;;;;;;14.18;6.32;;;;;;;17.40;91.14;101338.34;7354796;19;20131;-66
2023/10/10 06:26:49;;;;;;;12.05;6.60;;;;;;;17.41;91.05;101332.00;7358693;19;20118;-66
2023/10/10 06:29:16;;;;;;;13.80;6.97;;;;;;;17.42;90.85;101332.84;7354878;19;20014;-66
2023/10/10 06:31:46;;;;;;;13.02;6.70;;;;;;;17.41;90.60;101332.00;7356635;19;20291;-66
2023/10/10 06:36:48;;;;;;;11.25;5.90;;;;;;;17.43;90.28;101331.81;7357570;19;20499;-66
2023/10/10 06:41:47;;;;;;;15.23;6.38;;;;;;;17.40;89.80;101341.00;7357099;19;20206;-65
2023/10/10 06:44:17;;;;;;;12.75;6.47;;;;;;;17.42;89.74;101346.16;7354222;19;20094;-66
2023/10/10 06:46:48;;;;;;;11.77;6.30;;;;;;;17.42;89.41;101348.81;7357244;19;20632;-66
2023/10/10 06:49:18;;;;;;;11.02;5.88;;;;;;;17.42;88.97;101344.28;7353406;19;20028;-66
2023/10/10 06:51:46;;;;;;;11.82;5.60;;;;;;;17.44;88.47;101347.59;7356332;19;20025;-66
2023/10/10 06:56:45;;;;;;;11.23;5.57;;;;;;;17.45;88.43;101335.94;7356319;19;20015;-66
2023/10/10 07:01:45;;;;;;;12.38;5.90;;;;;;;17.41;87.55;101358.63;7357259;19;20025;-66
2023/10/10 07:04:14;;;;;;;11.25;5.43;;;;;;;17.42;87.39;101351.47;7354588;19;20018;-66
2023/10/10 07:06:44;;;;;;;12.13;5.18;;;;;;;17.44;87.15;101357.41;7354546;19;20013;-65
2023/10/10 07:09:14;;;;;;;11.27;5.10;;;;;;;17.45;86.77;101349.25;7356168;19;20014;-66
2023/10/10 07:11:42;;;;;;;12.10;5.88;;;;;;;17.47;86.59;101355.19;7354222;19;21816;-65
2023/10/10 07:14:16;;;;;;;12.20;5.03;;;;;;;17.47;86.24;101349.06;7355485;19;20022;-65
2023/10/10 07:16:56;;;;;;;12.32;5.45;;;;;;;17.48;86.18;101354.19;7356691;19;20067;-65
2023/10/10 07:19:30;;;;;;;12.98;5.05;;;;;;;17.48;86.29;101348.03;7353275;19;20660;-65
2023/10/10 07:22:03;;;;;;;10.60;5.70;;;;;;;17.49;85.69;101349.69;7355964;19;20027;-66
2023/10/10 07:24:40;;;;;;;17.27;5.38;;;;;;;17.51;85.69;101347.69;7353193;19;20033;-65
2023/10/10 07:27:30;;;;;;;10.57;5.13;;;;;;;17.53;85.61;101354.47;7357506;19;20792;-66
2023/10/10 07:30:16;;;;;;;16.05;8.00;;;;;;;17.52;85.19;101355.47;7353684;19;20495;-66
2023/10/10 07:32:51;;;;;;;14.48;6.20;;;;;;;17.55;85.47;101354.28;7354535;19;20098;-66
2023/10/10 07:35:27;;;;;;;11.82;5.45;;;;;;;17.54;85.50;101353.47;7355568;19;20014;-67
2023/10/10 07:40:30;;;;;;;14.90;6.13;;;;;;;17.56;86.03;101355.94;7355715;19;20023;-65
2023/10/10 07:42:59;;;;;;;15.30;6.20;;;;;;;17.54;86.34;101345.47;7352578;19;20034;-66
2023/10/10 07:45:43;;;;;;;11.82;5.28;;;;;;;17.54;86.93;101348.13;7352036;19;20022;-66
2023/10/10 07:53:34;;;;;;;15.43;6.75;;;;;;;17.69;87.91;101352.66;7351725;19;20469;-67
2023/10/10 07:56:04;;;;;;;20.83;6.80;;;;;;;17.86;87.40;101351.44;7350601;19;20048;-66
2023/10/10 08:01:18;;;;;;;20.33;7.57;;;;;;;18.46;85.92;101344.84;7354653;19;20128;-65
2023/10/10 08:03:47;;;;;;;15.07;6.97;;;;;;;18.64;84.68;101338.06;7351091;19;20022;-65
2023/10/10 08:06:17;;;;;;;21.48;7.82;;;;;;;18.69;83.83;101338.31;7354321;19;20344;-67
2023/10/10 08:08:44;;;;;;;15.10;7.45;;;;;;;18.62;84.63;101345.44;7349821;19;20520;-66
2023/10/10 08:11:13;;;;;;;18.13;8.02;;;;;;;18.53;85.20;101337.75;7354057;19;20019;-66
2023/10/10 08:13:48;;;;;;;13.82;6.93;;;;;;;18.46;85.97;101345.69;7351792;19;20021;-66
2023/10/10 08:16:20;;;;;;;16.25;7.45;;;;;;;18.44;86.53;101334.38;7353269;19;20012;-65
2023/10/10 08:21:16;;;;;;;15.88;7.13;;;;;;;18.49;88.15;101339.16;7352937;19;20007;-65
2023/10/10 08:26:17;;;;;;;22.08;8.05;;;;;;;18.49;87.49;101326.63;7352659;19;20057;-65
2023/10/10 08:28:47;;;;;;;16.58;7.43;;;;;;;18.53;87.93;101327.91;7352559;19;20506;-66
2023/10/10 08:31:15;;;;;;;18.23;8.40;;;;;;;18.55;88.46;101331.22;7350069;19;20019;-66
2023/10/10 08:33:46;;;;;;;16.25;8.63;;;;;;;18.58;88.11;101338.03;7347310;19;20371;-66
2023/10/10 08:38:47;;;;;;;17.05;8.07;;;;;;;18.66;88.74;101340.56;7352530;19;20534;-67
2023/10/10 08:41:19;;;;;;;22.27;8.15;;;;;;;18.70;88.28;101329.31;7352311;19;20133;-66
2023/10/10 08:43:53;;;;;;;;;;;;;;;18.73;88.15;101334.28;7352638;19;20018;-66
2023/10/10 08:46:26;;;;;;;14.57;7.43;;;;;;;18.74;87.80;101335.88;7350765;19;20047;-66
2023/10/10 08:48:56;;;;;;;13.68;6.75;;;;;;;18.76;88.49;101336.53;7353781;19;20882;-67
2023/10/10 08:51:24;;;;;;;16.88;7.35;;;;;;;18.80;88.79;101329.78;7352824;19;20007;-69
2023/10/10 08:53:53;;;;;;;13.52;7.28;;;;;;;18.86;88.97;101325.53;7348688;19;20104;-66
2023/10/10 08:56:20;;;;;;;22.70;10.90;;;;;;;18.91;89.30;101324.94;7351853;19;20094;-65
2023/10/10 08:58:50;;;;;;;14.43;7.13;;;;;;;18.96;89.27;101320.66;7349582;19;20032;-66
2023/10/10 09:01:33;;;;;;;11.85;6.82;;;;;;;19.00;88.77;101305.91;7351260;19;20023;-65
2023/10/10 09:04:04;;;;;;;16.67;7.70;;;;;;;19.05;88.56;101308.81;7351437;19;20097;-66
2023/10/10 09:09:34;;;;;;;13.97;6.40;;;;;;;19.16;87.51;101318.13;7349736;19;20010;-65
2023/10/10 09:12:03;;;;;;;12.18;6.68;;;;;;;19.23;87.81;101308.31;7354937;19;20388;-66
2023/10/10 09:14:49;;;;;;;11.77;6.15;;;;;;;19.33;87.91;101310.63;7350015;19;20015;-66
2023/10/10 09:17:35;;;;;;;14.15;5.80;;;;;;;19.39;87.38;101304.50;7351815;19;20037;-65
2023/10/10 09:20:17;;;;;;;14.55;6.30;;;;;;;19.45;86.76;101307.22;7355092;19;20022;-67
2023/10/10 09:22:51;;;;;;;10.70;4.90;;;;;;;19.49;86.20;101311.16;7353384;19;20011;-66
2023/10/10 09:25:22;;;;;;;12.13;4.82;;;;;;;19.56;86.39;101316.50;7352033;19;20011;-66
2023/10/10 09:27:59;;;;;;;12.13;5.32;;;;;;;19.64;85.94;101305.66;7349659;19;20578;-65
2023/10/10 09:30:34;;;;;;;11.02;4.85;;;;;;;19.66;84.44;101303.59;7361678;19;20021;-66
2023/10/10 09:36:08;;;;;;;10.57;4.38;;;;;;;19.72;83.72;101300.13;7360336;19;20522;-66
2023/10/10 09:38:36;;;;;;;13.30;4.82;;;;;;;19.75;83.07;101307.75;7346863;19;20105;-65
2023/10/10 09:41:14;;;;;;;16.13;5.20;;;;;;;19.79;83.33;101300.97;7356168;19;20021;-65
2023/10/10 09:54:55;;;;;;;10.07;4.63;;;;;;;20.01;83.20;101294.44;7360533;19;20014;-65
2023/10/10 09:57:26;;;;;;;10.98;4.22;;;;;;;20.04;82.34;101293.22;7352328;19;20015;-66
2023/10/10 09:59:56;;;;;;;11.25;4.38;;;;;;;20.08;83.02;101286.44;7355514;19;20021;-65
2023/10/10 10:02:40;;;;;;;10.00;4.57;;;;;;;20.12;82.18;101294.84;7359664;19;20808;-66
2023/10/10 10:05:17;;;;;;;11.68;5.25;;;;;;;20.13;81.24;101288.50;7340441;19;20599;-66
2023/10/10 10:08:21;;;;;;;8.73;3.92;;;;;;;20.23;81.93;101289.72;7355005;19;20014;-65
2023/10/10 10:10:55;;;;;;;9.82;4.03;;;;;;;20.28;81.18;101286.44;7356095;19;20015;-66
2023/10/10 10:13:38;;;;;;;9.88;4.25;;;;;;;20.32;80.51;101287.69;7352627;19;20045;-66
2023/10/10 10:16:44;;;;;;;10.85;4.03;;;;;;;20.37;79.86;101279.88;7353827;19;20045;-64
2023/10/10 10:19:17;;;;;;;12.38;4.30;;;;;;;20.44;80.16;101281.56;7355655;19;20006;-66
2023/10/10 10:21:56;;;;;;;8.93;3.55;;;;;;;20.49;78.45;101280.94;7358196;19;20019;-65
2023/10/10 10:24:30;;;;;;;12.95;4.10;;;;;;;20.54;78.15;101273.09;7358592;19;20515;-65
2023/10/10 10:27:35;;;;;;;11.80;3.67;;;;;;;20.58;79.16;101279.69;7359873;19;20010;-65
2023/10/10 10:32:47;;;;;;;10.30;3.22;;;;;;;20.66;77.46;101282.16;7358689;19;20014;-65
2023/10/10 10:36:05;;;;;;;6.80;3.50;;;;;;;20.70;77.59;101275.34;7359579;19;20011;-66
2023/10/10 10:38:39;;;;;;;7.40;3.42;;;;;;;20.79;78.71;101275.94;7358148;19;21105;-66
2023/10/10 10:41:17;;;;;;;8.68;3.30;;;;;;;20.87;79.97;101273.06;7351992;19;20118;-66
2023/10/10 10:43:50;;;;;;;10.90;3.10;;;;;;;20.92;78.46;101273.25;7357124;19;20486;-66
2023/10/10 10:46:27;;;;;;;10.20;3.70;;;;;;;20.96;77.46;101269.13;7357409;19;20023;-65
2023/10/10 10:49:05;;;;;;;9.00;3.08;;;;;;;21.02;76.60;101278.19;7358724;19;20029;-66
2023/10/10 10:51:41;;;;;;;6.18;2.88;;;;;;;21.08;77.61;101272.00;7361384;19;20014;-65
2023/10/10 10:54:09;;;;;;;7.15;2.88;;;;;;;21.14;76.78;101266.63;7358942;19;20024;-66
2023/10/10 10:59:15;;;;;;;7.28;3.13;;;;;;;21.26;76.22;101264.13;7354070;19;20743;-66
2023/10/10 11:01:52;;;;;;;6.00;2.03;;;;;;;21.29;75.99;101250.28;7360015;19;20482;-65
2023/10/10 11:04:39;;;;;;;11.10;2.65;;;;;;;21.34;75.28;101251.31;7358671;19;20636;-66
2023/10/10 11:07:15;;;;;;;9.35;2.88;;;;;;;21.37;74.95;101255.44;7358943;19;20031;-66
2023/10/10 11:09:52;;;;;;;7.70;3.00;;;;;;;21.43;75.21;101246.56;7355783;19;20102;-66
2023/10/10 11:12:32;;;;;;;11.07;2.47;;;;;;;21.51;74.58;101248.13;7355374;19;20649;-66
2023/10/10 11:15:08;;;;;;;5.90;2.65;;;;;;;21.58;74.45;101243.59;7357269;19;20026;-65
2023/10/10 11:17:39;;;;;;;6.75;2.65;;;;;;;21.64;74.43;101240.84;7354618;19;20528;-65
2023/10/10 11:20:29;;;;;;;11.75;2.60;;;;;;;21.69;73.47;101235.66;7358372;19;20032;-65
2023/10/10 11:23:11;;;;;;;6.07;2.28;;;;;;;21.77;72.49;101234.59;7355698;19;20026;-65
2023/10/10 11:25:45;;;;;;;11.88;2.63;;;;;;;21.85;71.95;101220.09;7354892;19;20121;-64
2023/10/10 11:28:24;;;;;;;14.10;2.75;;;;;;;21.93;71.86;101223.34;7356451;19;20354;-65
2023/10/10 11:30:53;;;;;;;9.88;2.17;;;;;;;21.99;72.19;101219.81;7356614;19;20082;-66
2023/10/10 11:33:48;;;;;;;6.93;2.50;;;;;;;22.04;70.79;101222.69;7355732;19;20018;-66
2023/10/10 11:36:29;;;;;;;7.90;1.95;;;;;;;22.10;69.42;101212.94;7356541;19;20017;-66
2023/10/10 11:39:15;;;;;;;11.15;2.50;;;;;;;22.15;68.95;101211.22;7355029;19;20025;-65
2023/10/10 11:41:42;;;;;;;5.55;2.25;;;;;;;22.22;68.55;101202.31;7356230;19;20033;-66
2023/10/10 11:44:09;;;;;;;9.02;2.40;;;;;;;22.28;69.08;101201.44;7354791;19;20738;-66
2023/10/10 11:46:38;;;;;;;5.38;2.35;;;;;;;22.34;69.03;101203.25;7351363;19;20333;-65
2023/10/10 11:49:15;;;;;;;4.35;1.98;;;;;;;22.39;69.34;101196.19;7352014;19;20567;-65
2023/10/10 11:51:42;;;;;;;8.23;2.42;;;;;;;22.43;69.46;101197.38;7358760;19;20030;-65
2023/10/10 11:54:09;;;;;;;7.68;2.45;;;;;;;22.45;70.33;101203.31;7354083;19;20081;-65
2023/10/10 11:56:37;;;;;;;11.65;2.70;;;;;;;22.45;70.17;101187.22;7355761;19;20445;-65
2023/10/10 11:59:14;;;;;;;9.25;4.47;;;;;;;22.46;69.93;101183.50;7348811;19;20010;-66
2023/10/10 12:01:54;;;;;;;8.05;2.80;;;;;;;22.48;69.77;101184.13;7356124;19;20033;-64
2023/10/10 12:04:30;;;;;;;9.27;3.20;;;;;;;22.51;70.10;101183.66;7355384;19;20106;-67
2023/10/10 12:07:02;;;;;;;8.57;2.95;;;;;;;22.54;68.66;101177.03;7354589;19;20017;-65
2023/10/10 12:09:32;;;;;;;8.52;3.00;;;;;;;22.59;68.57;101180.69;7354781;19;20019;-66
2023/10/10 12:12:03;;;;;;;15.35;3.97;;;;;;;22.67;69.19;101176.88;7355768;19;20711;-65
2023/10/10 12:14:31;;;;;;;11.90;3.80;;;;;;;22.73;68.82;101185.94;7352578;19;20742;-66
2023/10/10 12:16:58;;;;;;;10.05;3.03;;;;;;;22.79;68.23;101180.50;7353174;19;20086;-66
2023/10/10 12:19:36;;;;;;;6.28;2.70;;;;;;;22.83;68.50;101170.13;7357694;19;20023;-65
2023/10/10 12:22:17;;;;;;;10.52;3.42;;;;;;;22.89;69.06;101169.25;7355248;19;20034;-66
2023/10/10 12:24:50;;;;;;;7.30;3.28;;;;;;;22.92;68.79;101164.22;7353335;19;20014;-64
2023/10/10 12:27:17;;;;;;;9.00;3.10;;;;;;;22.95;68.24;101161.09;7355299;19;20889;-65
2023/10/10 12:29:47;;;;;;;10.13;3.40;;;;;;;22.99;67.97;101159.59;7358086;19;20015;-66
2023/10/10 12:32:26;;;;;;;10.45;4.13;;;;;;;23.01;65.66;101160.19;7355792;19;20010;-65
2023/10/10 12:34:54;;;;;;;12.05;4.50;;;;;;;23.05;67.07;101165.13;7355372;19;20333;-64
2023/10/10 12:37:23;;;;;;;9.50;4.43;;;;;;;23.05;66.16;101149.00;7331115;19;20063;-65
2023/10/10 12:39:52;;;;;;;13.63;4.47;;;;;;;23.05;66.57;101152.50;7350057;19;20106;-66
2023/10/10 12:42:24;;;;;;;11.82;4.85;;;;;;;23.07;66.37;101153.09;7353956;19;20033;-66
2023/10/10 12:44:51;;;;;;;8.57;5.03;;;;;;;23.08;66.44;101149.38;7353612;19;20078;-65
2023/10/10 12:47:19;;;;;;;10.40;5.72;;;;;;;23.09;66.47;101151.00;7352361;19;20322;-66
2023/10/10 12:49:46;;;;;;;12.30;4.78;;;;;;;23.10;66.64;101143.78;7354100;19;20022;-65
2023/10/10 12:52:32;;;;;;;7.90;4.65;;;;;;;23.12;67.29;101152.41;7356938;19;20457;-66
2023/10/10 12:54:59;;;;;;;15.15;5.22;;;;;;;23.13;67.96;101144.13;7352253;19;20014;-67
2023/10/10 12:57:32;;;;;;;13.57;5.43;;;;;;;23.14;67.55;101142.25;7351829;19;20510;-66
2023/10/10 13:00:23;;;;;;;11.23;6.57;;;;;;;23.15;67.57;101147.41;7349743;19;20016;-66
2023/10/10 13:02:47;;;;;;;13.73;6.00;;;;;;;23.16;67.29;101134.81;7353173;19;20050;-63
2023/10/10 13:05:16;;;;;;;12.18;6.20;;;;;;;23.18;66.95;101138.06;7358649;19;20022;-67
2023/10/10 13:07:43;;;;;;;13.80;6.45;;;;;;;23.19;67.37;101135.16;7358870;19;20809;-66
2023/10/10 13:10:10;;;;;;;10.77;7.15;;;;;;;23.21;67.81;101135.75;7360935;19;20029;-65
2023/10/10 13:12:37;;;;;;;13.73;6.45;;;;;;;23.22;67.71;101139.25;7361147;19;20089;-66
2023/10/10 13:15:16;;;;;;;13.80;6.65;;;;;;;23.19;67.59;101135.16;7359973;19;20014;-66
2023/10/10 13:17:53;;;;;;;9.57;4.65;;;;;;;23.18;68.11;101144.25;7358026;19;20022;-66
2023/10/10 13:20:21;;;;;;;11.02;5.07;;;;;;;23.17;68.40;101141.78;7359916;19;20018;-66
2023/10/10 13:22:50;;;;;;;10.38;5.03;;;;;;;23.13;68.30;101137.94;7359414;19;20017;-66
2023/10/10 13:25:19;;;;;;;10.07;4.85;;;;;;;23.07;68.26;101136.97;7357836;19;20014;-65
2023/10/10 13:27:46;;;;;;;10.07;4.63;;;;;;;23.06;68.79;101142.59;7356907;19;20048;-66
2023/10/10 13:30:13;;;;;;;9.30;4.28;;;;;;;23.02;68.95;101142.22;7358751;19;20629;-65
2023/10/10 13:32:42;;;;;;;12.05;4.57;;;;;;;23.01;68.44;101140.56;7358230;19;20019;-65
2023/10/10 13:35:10;;;;;;;11.00;4.43;;;;;;;22.98;68.74;101136.47;7359363;19;20593;-65
2023/10/10 13:37:41;;;;;;;8.85;4.50;;;;;;;22.95;69.54;101134.25;7359654;19;20011;-65
2023/10/10 13:40:09;;;;;;;10.38;4.93;;;;;;;22.88;69.97;101133.53;7356371;19;20035;-66
2023/10/10 13:42:40;;;;;;;15.38;4.30;;;;;;;22.85;70.30;101133.16;7356833;19;20994;-66
2023/10/10 13:45:11;;;;;;;9.75;4.70;;;;;;;22.80;69.99;101141.06;7360054;19;20118;-66
2023/10/10 13:47:40;;;;;;;11.90;4.17;;;;;;;22.76;69.63;101135.31;7355790;19;20046;-65
2023/10/10 13:50:28;;;;;;;7.90;4.22;;;;;;;22.73;70.46;101137.63;7359107;19;20018;-65
2023/10/10 13:52:55;;;;;;;8.68;4.20;;;;;;;22.67;70.55;101150.06;7358397;19;20017;-66
2023/10/10 13:55:23;;;;;;;8.55;5.05;;;;;;;22.63;70.97;101143.50;7357363;19;20036;-66
2023/10/10 13:57:50;;;;;;;9.13;4.00;;;;;;;22.59;70.51;101136.94;7358742;19;20105;-65
2023/10/10 14:00:29;;;;;;;8.85;4.10;;;;;;;22.54;70.56;101139.47;7354511;19;20018;-69
2023/10/10 14:03:03;;;;;;;9.63;4.13;;;;;;;22.53;71.89;101135.16;7355482;19;20459;-67
2023/10/10 14:05:41;;;;;;;8.80;3.80;;;;;;;22.51;71.59;101132.69;7355176;19;20367;-66
2023/10/10 14:08:10;;;;;;;6.85;4.00;;;;;;;22.50;71.76;101133.72;7357837;19;20032;-66
2023/10/10 14:10:39;;;;;;;9.23;4.32;;;;;;;22.51;71.89;101131.88;7355875;19;20385;-65
2023/10/10 14:13:18;;;;;;;9.25;5.20;;;;;;;22.51;71.74;101134.53;7355958;19;20023;-66
2023/10/10 14:15:54;;;;;;;12.88;4.22;;;;;;;22.48;71.86;101135.81;7355186;19;21263;-65
2023/10/10 14:18:31;;;;;;;7.20;4.63;;;;;;;22.49;71.93;101129.44;7356189;19;20072;-67
2023/10/10 14:21:08;;;;;;;8.40;4.50;;;;;;;22.50;72.65;101130.25;7359097;19;20027;-66
2023/10/10 14:23:35;;;;;;;9.80;5.05;;;;;;;22.50;72.94;101117.63;7358894;19;20355;-66
2023/10/10 14:26:18;;;;;;;10.40;4.70;;;;;;;22.49;73.21;101128.59;7359586;19;20663;-66
2023/10/10 14:28:50;;;;;;;11.13;4.53;;;;;;;22.45;73.08;101112.13;7355021;19;20022;-65
2023/10/10 14:31:22;;;;;;;8.90;4.20;;;;;;;22.43;73.70;101114.22;7367155;19;20223;-65
2023/10/10 14:33:59;;;;;;;10.38;4.35;;;;;;;22.43;72.63;101113.41;7365747;19;20018;-65
2023/10/10 14:36:30;;;;;;;6.78;3.72;;;;;;;22.40;72.08;101120.00;7365336;19;20026;-65
2023/10/10 14:38:59;;;;;;;7.93;3.80;;;;;;;22.37;73.12;101123.16;7359221;19;20024;-66
2023/10/10 14:41:30;;;;;;;6.65;3.60;;;;;;;22.37;73.57;101115.09;7351954;19;20025;-65
2023/10/10 14:44:00;;;;;;;7.43;3.63;;;;;;;22.37;73.73;101125.84;7364146;19;20606;-65
2023/10/10 14:46:32;;;;;;;5.75;3.70;;;;;;;22.38;74.22;101124.81;7363419;19;20022;-65
2023/10/10 14:49:16;;;;;;;9.80;4.22;;;;;;;22.37;71.98;101116.97;7366111;19;20019;-65
2023/10/10 14:51:50;;;;;;;11.45;4.57;;;;;;;22.34;72.90;101118.25;7366410;19;20331;-66
2023/10/10 14:54:17;;;;;;;10.48;3.88;;;;;;;22.33;73.13;101111.25;7356605;19;20355;-66
2023/10/10 14:56:51;;;;;;;11.65;4.53;;;;;;;22.33;73.55;101105.06;7360051;19;20649;-65
2023/10/10 14:59:31;;;;;;;10.88;4.07;;;;;;;22.32;72.35;101104.22;7354357;19;20022;-65
2023/10/10 15:02:00;;;;;;;7.45;3.88;;;;;;;22.32;72.58;101100.72;7350473;19;20236;-67
2023/10/10 15:04:30;;;;;;;8.85;4.63;;;;;;;22.31;72.57;101102.59;7352737;19;20060;-67
2023/10/10 15:06:58;;;;;;;7.60;3.53;;;;;;;22.30;72.72;101110.88;7358161;19;20021;-66